Hilton, New York
Current Conditions -  °F | °C
As of 10:54 AM on Saturday 25 Oct 2014 (Local Time) from KROC Reporting Station
Broken Clouds Broken Clouds  
Wind Chill: 58°   Ceiling: 22000
Heat Index: 58°   Visibility: 10mi
Dew Point: 47°   Wind: 12mph
Humidity: 67%   Direction: 210°SSW
Pressure: 29.74"   Gusts: NA
Location:  43.29°N, 77.8°W
Report Text: KROC 251454Z 21010KT 10SM FEW042 SCT180 BKN220 14/08 A2974 RMK AO2 SLP076 T01440083 58030
Loading
Personal Weather Stations






























Interactive Weather Map
Tropical Storm Tracking
New forecast layout! Learn more

10-Day Weather Forecast

Advertisements
Track Severe Weather on mobile